sensor_id;sensor_type;location;lat;lon;timestamp;P1;durP1;ratioP1;P2;durP2;ratioP2
15996;SDS011;8103;51.340;12.326;2023-07-22T00:00:03;5.10;;;4.00;;
15996;SDS011;8103;51.340;12.326;2023-07-22T00:02:32;8.35;;;4.88;;
15996;SDS011;8103;51.340;12.326;2023-07-22T00:04:59;8.30;;;5.38;;
15996;SDS011;8103;51.340;12.326;2023-07-22T00:07:26;5.93;;;5.30;;
15996;SDS011;8103;51.340;12.326;2023-07-22T00:09:52;11.07;;;5.97;;
15996;SDS011;8103;51.340;12.326;2023-07-22T00:12:19;6.03;;;4.85;;
15996;SDS011;8103;51.340;12.326;2023-07-22T00:14:46;6.82;;;5.25;;
15996;SDS011;8103;51.340;12.326;2023-07-22T00:17:13;8.15;;;4.68;;
15996;SDS011;8103;51.340;12.326;2023-07-22T00:19:40;8.45;;;5.28;;
15996;SDS011;8103;51.340;12.326;2023-07-22T00:22:07;7.72;;;5.00;;
15996;SDS011;8103;51.340;12.326;2023-07-22T00:24:34;7.80;;;5.05;;
15996;SDS011;8103;51.340;12.326;2023-07-22T00:27:01;4.40;;;4.00;;
15996;SDS011;8103;51.340;12.326;2023-07-22T00:29:28;6.35;;;4.40;;
15996;SDS011;8103;51.340;12.326;2023-07-22T00:31:54;5.65;;;4.70;;
15996;SDS011;8103;51.340;12.326;2023-07-22T00:34:21;5.32;;;4.07;;
15996;SDS011;8103;51.340;12.326;2023-07-22T00:36:50;9.90;;;4.97;;
15996;SDS011;8103;51.340;12.326;2023-07-22T00:39:16;5.38;;;4.75;;
15996;SDS011;8103;51.340;12.326;2023-07-22T00:41:44;7.47;;;4.40;;
15996;SDS011;8103;51.340;12.326;2023-07-22T00:44:11;5.03;;;4.50;;
15996;SDS011;8103;51.340;12.326;2023-07-22T00:46:38;7.38;;;4.50;;
15996;SDS011;8103;51.340;12.326;2023-07-22T00:49:07;4.75;;;4.35;;
15996;SDS011;8103;51.340;12.326;2023-07-22T00:51:34;5.20;;;4.78;;
15996;SDS011;8103;51.340;12.326;2023-07-22T00:54:02;6.53;;;5.05;;
15996;SDS011;8103;51.340;12.326;2023-07-22T00:56:32;5.25;;;4.75;;
15996;SDS011;8103;51.340;12.326;2023-07-22T00:59:02;6.13;;;5.05;;
15996;SDS011;8103;51.340;12.326;2023-07-22T01:01:29;9.75;;;5.47;;
15996;SDS011;8103;51.340;12.326;2023-07-22T01:03:56;5.53;;;4.78;;
15996;SDS011;8103;51.340;12.326;2023-07-22T01:10:12;6.43;;;5.40;;
15996;SDS011;8103;51.340;12.326;2023-07-22T01:12:41;6.28;;;5.55;;
15996;SDS011;8103;51.340;12.326;2023-07-22T01:15:08;10.13;;;5.25;;
15996;SDS011;8103;51.340;12.326;2023-07-22T01:17:37;6.75;;;6.03;;
15996;SDS011;8103;51.340;12.326;2023-07-22T01:20:05;5.53;;;5.03;;
15996;SDS011;8103;51.340;12.326;2023-07-22T01:22:33;6.50;;;5.90;;
15996;SDS011;8103;51.340;12.326;2023-07-22T01:25:01;8.77;;;5.85;;
15996;SDS011;8103;51.340;12.326;2023-07-22T01:27:28;6.68;;;6.07;;
15996;SDS011;8103;51.340;12.326;2023-07-22T01:29:55;6.13;;;5.63;;
15996;SDS011;8103;51.340;12.326;2023-07-22T01:32:22;6.38;;;5.75;;
15996;SDS011;8103;51.340;12.326;2023-07-22T01:34:49;6.32;;;5.47;;
15996;SDS011;8103;51.340;12.326;2023-07-22T01:37:16;6.70;;;5.82;;
15996;SDS011;8103;51.340;12.326;2023-07-22T01:39:43;8.93;;;6.43;;
15996;SDS011;8103;51.340;12.326;2023-07-22T01:42:10;6.90;;;6.30;;
15996;SDS011;8103;51.340;12.326;2023-07-22T01:44:37;6.43;;;5.85;;
15996;SDS011;8103;51.340;12.326;2023-07-22T01:47:06;7.78;;;6.93;;
15996;SDS011;8103;51.340;12.326;2023-07-22T01:49:33;8.30;;;6.82;;
15996;SDS011;8103;51.340;12.326;2023-07-22T01:52:00;8.55;;;7.50;;
15996;SDS011;8103;51.340;12.326;2023-07-22T01:54:27;9.48;;;8.02;;
15996;SDS011;8103;51.340;12.326;2023-07-22T01:56:53;6.15;;;5.55;;
15996;SDS011;8103;51.340;12.326;2023-07-22T01:59:21;9.57;;;8.57;;
15996;SDS011;8103;51.340;12.326;2023-07-22T02:01:48;7.55;;;6.85;;
15996;SDS011;8103;51.340;12.326;2023-07-22T02:04:15;8.95;;;8.10;;
15996;SDS011;8103;51.340;12.326;2023-07-22T02:06:42;11.40;;;7.65;;
15996;SDS011;8103;51.340;12.326;2023-07-22T02:09:09;7.60;;;6.90;;
15996;SDS011;8103;51.340;12.326;2023-07-22T02:11:39;7.05;;;6.25;;
15996;SDS011;8103;51.340;12.326;2023-07-22T02:14:06;8.52;;;7.35;;
15996;SDS011;8103;51.340;12.326;2023-07-22T02:16:36;11.20;;;6.78;;
15996;SDS011;8103;51.340;12.326;2023-07-22T02:19:03;12.23;;;8.75;;
15996;SDS011;8103;51.340;12.326;2023-07-22T02:21:30;7.30;;;6.53;;
15996;SDS011;8103;51.340;12.326;2023-07-22T02:23:57;11.30;;;9.13;;
15996;SDS011;8103;51.340;12.326;2023-07-22T02:26:24;9.15;;;7.45;;
15996;SDS011;8103;51.340;12.326;2023-07-22T02:28:51;7.63;;;6.93;;
15996;SDS011;8103;51.340;12.326;2023-07-22T02:31:18;11.80;;;8.32;;
15996;SDS011;8103;51.340;12.326;2023-07-22T02:33:44;9.25;;;7.43;;
15996;SDS011;8103;51.340;12.326;2023-07-22T02:36:12;8.75;;;7.88;;
15996;SDS011;8103;51.340;12.326;2023-07-22T02:38:39;7.50;;;5.90;;
15996;SDS011;8103;51.340;12.326;2023-07-22T02:41:06;9.90;;;8.02;;
15996;SDS011;8103;51.340;12.326;2023-07-22T02:43:34;11.75;;;8.05;;
15996;SDS011;8103;51.340;12.326;2023-07-22T02:46:01;8.30;;;6.55;;
15996;SDS011;8103;51.340;12.326;2023-07-22T02:48:29;10.63;;;7.30;;
15996;SDS011;8103;51.340;12.326;2023-07-22T02:53:31;11.00;;;7.88;;
15996;SDS011;8103;51.340;12.326;2023-07-22T02:55:59;7.75;;;6.93;;
15996;SDS011;8103;51.340;12.326;2023-07-22T02:58:27;8.25;;;5.65;;
15996;SDS011;8103;51.340;12.326;2023-07-22T03:00:54;8.50;;;6.68;;
15996;SDS011;8103;51.340;12.326;2023-07-22T03:03:21;7.75;;;6.25;;
15996;SDS011;8103;51.340;12.326;2023-07-22T03:05:47;6.15;;;5.65;;
15996;SDS011;8103;51.340;12.326;2023-07-22T03:08:14;7.70;;;6.40;;
15996;SDS011;8103;51.340;12.326;2023-07-22T03:10:41;6.28;;;5.43;;
15996;SDS011;8103;51.340;12.326;2023-07-22T03:13:17;10.15;;;7.13;;
15996;SDS011;8103;51.340;12.326;2023-07-22T03:15:44;9.27;;;6.75;;
15996;SDS011;8103;51.340;12.326;2023-07-22T03:18:11;8.23;;;6.82;;
15996;SDS011;8103;51.340;12.326;2023-07-22T03:20:38;12.02;;;7.03;;
15996;SDS011;8103;51.340;12.326;2023-07-22T03:23:05;9.60;;;6.95;;
15996;SDS011;8103;51.340;12.326;2023-07-22T03:25:33;5.68;;;5.18;;
15996;SDS011;8103;51.340;12.326;2023-07-22T03:28:02;8.18;;;6.38;;
15996;SDS011;8103;51.340;12.326;2023-07-22T03:30:31;10.32;;;8.18;;
15996;SDS011;8103;51.340;12.326;2023-07-22T03:32:58;7.75;;;6.32;;
15996;SDS011;8103;51.340;12.326;2023-07-22T03:35:27;11.20;;;6.38;;
15996;SDS011;8103;51.340;12.326;2023-07-22T03:41:41;8.32;;;5.55;;
15996;SDS011;8103;51.340;12.326;2023-07-22T03:44:08;7.57;;;6.07;;
15996;SDS011;8103;51.340;12.326;2023-07-22T03:46:35;6.68;;;5.95;;
15996;SDS011;8103;51.340;12.326;2023-07-22T03:49:02;6.13;;;5.63;;
15996;SDS011;8103;51.340;12.326;2023-07-22T03:51:28;6.93;;;6.32;;
15996;SDS011;8103;51.340;12.326;2023-07-22T03:53:55;6.05;;;5.55;;
15996;SDS011;8103;51.340;12.326;2023-07-22T03:56:22;9.68;;;6.75;;
15996;SDS011;8103;51.340;12.326;2023-07-22T03:58:50;8.05;;;6.63;;
15996;SDS011;8103;51.340;12.326;2023-07-22T04:01:18;8.70;;;7.15;;
15996;SDS011;8103;51.340;12.326;2023-07-22T04:03:45;9.07;;;6.13;;
15996;SDS011;8103;51.340;12.326;2023-07-22T04:06:12;8.02;;;5.93;;
15996;SDS011;8103;51.340;12.326;2023-07-22T04:08:39;7.97;;;6.35;;
15996;SDS011;8103;51.340;12.326;2023-07-22T04:11:06;14.68;;;7.53;;
15996;SDS011;8103;51.340;12.326;2023-07-22T04:13:33;6.80;;;6.07;;
15996;SDS011;8103;51.340;12.326;2023-07-22T04:15:59;7.47;;;6.72;;
15996;SDS011;8103;51.340;12.326;2023-07-22T04:18:26;12.57;;;7.03;;
15996;SDS011;8103;51.340;12.326;2023-07-22T04:20:59;9.43;;;7.28;;
15996;SDS011;8103;51.340;12.326;2023-07-22T04:23:26;8.85;;;7.00;;
15996;SDS011;8103;51.340;12.326;2023-07-22T04:25:53;7.18;;;6.00;;
15996;SDS011;8103;51.340;12.326;2023-07-22T04:28:20;7.05;;;6.45;;
15996;SDS011;8103;51.340;12.326;2023-07-22T04:30:54;6.45;;;5.85;;
15996;SDS011;8103;51.340;12.326;2023-07-22T04:33:22;11.05;;;7.70;;
15996;SDS011;8103;51.340;12.326;2023-07-22T04:35:49;10.90;;;7.40;;
15996;SDS011;8103;51.340;12.326;2023-07-22T04:38:15;7.85;;;7.00;;
15996;SDS011;8103;51.340;12.326;2023-07-22T04:40:42;9.93;;;7.50;;
15996;SDS011;8103;51.340;12.326;2023-07-22T04:43:10;8.07;;;7.10;;
15996;SDS011;8103;51.340;12.326;2023-07-22T04:45:36;14.32;;;6.43;;
15996;SDS011;8103;51.340;12.326;2023-07-22T04:48:06;10.00;;;6.95;;
15996;SDS011;8103;51.340;12.326;2023-07-22T04:50:33;8.48;;;6.57;;
15996;SDS011;8103;51.340;12.326;2023-07-22T04:53:00;10.13;;;7.35;;
15996;SDS011;8103;51.340;12.326;2023-07-22T04:55:27;12.75;;;7.85;;
15996;SDS011;8103;51.340;12.326;2023-07-22T04:57:56;13.38;;;6.03;;
15996;SDS011;8103;51.340;12.326;2023-07-22T05:00:22;12.05;;;6.93;;
15996;SDS011;8103;51.340;12.326;2023-07-22T05:02:49;8.27;;;7.47;;
15996;SDS011;8103;51.340;12.326;2023-07-22T05:05:19;7.10;;;6.50;;
15996;SDS011;8103;51.340;12.326;2023-07-22T05:07:45;9.52;;;7.15;;
15996;SDS011;8103;51.340;12.326;2023-07-22T05:10:14;12.20;;;7.57;;
15996;SDS011;8103;51.340;12.326;2023-07-22T05:12:42;9.85;;;6.88;;
15996;SDS011;8103;51.340;12.326;2023-07-22T05:15:12;10.18;;;7.13;;
15996;SDS011;8103;51.340;12.326;2023-07-22T05:17:39;7.70;;;6.82;;
15996;SDS011;8103;51.340;12.326;2023-07-22T05:20:06;9.13;;;7.60;;
15996;SDS011;8103;51.340;12.326;2023-07-22T05:22:36;9.20;;;7.72;;
15996;SDS011;8103;51.340;12.326;2023-07-22T05:25:04;6.13;;;4.90;;
15996;SDS011;8103;51.340;12.326;2023-07-22T05:27:32;7.60;;;6.60;;
15996;SDS011;8103;51.340;12.326;2023-07-22T05:29:59;6.82;;;6.13;;
15996;SDS011;8103;51.340;12.326;2023-07-22T05:36:19;8.98;;;6.68;;
15996;SDS011;8103;51.340;12.326;2023-07-22T05:38:47;11.48;;;6.95;;
15996;SDS011;8103;51.340;12.326;2023-07-22T05:41:13;8.85;;;6.15;;
15996;SDS011;8103;51.340;12.326;2023-07-22T05:43:40;14.57;;;6.28;;
15996;SDS011;8103;51.340;12.326;2023-07-22T05:46:07;8.68;;;6.20;;
15996;SDS011;8103;51.340;12.326;2023-07-22T05:48:33;15.00;;;7.97;;
15996;SDS011;8103;51.340;12.326;2023-07-22T05:51:00;13.30;;;6.28;;
15996;SDS011;8103;51.340;12.326;2023-07-22T05:53:27;7.60;;;6.80;;
15996;SDS011;8103;51.340;12.326;2023-07-22T05:55:54;8.23;;;6.32;;
15996;SDS011;8103;51.340;12.326;2023-07-22T05:58:20;8.18;;;6.22;;
15996;SDS011;8103;51.340;12.326;2023-07-22T06:00:47;6.90;;;5.72;;
15996;SDS011;8103;51.340;12.326;2023-07-22T06:03:14;7.53;;;6.43;;
15996;SDS011;8103;51.340;12.326;2023-07-22T06:05:41;8.85;;;7.13;;
15996;SDS011;8103;51.340;12.326;2023-07-22T06:08:07;9.57;;;6.57;;
15996;SDS011;8103;51.340;12.326;2023-07-22T06:10:34;8.18;;;6.75;;
15996;SDS011;8103;51.340;12.326;2023-07-22T06:13:04;14.40;;;7.85;;
15996;SDS011;8103;51.340;12.326;2023-07-22T06:15:31;10.65;;;7.45;;
15996;SDS011;8103;51.340;12.326;2023-07-22T06:17:58;9.65;;;7.40;;
15996;SDS011;8103;51.340;12.326;2023-07-22T06:20:26;7.05;;;6.10;;
15996;SDS011;8103;51.340;12.326;2023-07-22T06:22:53;11.40;;;5.93;;
15996;SDS011;8103;51.340;12.326;2023-07-22T06:25:21;12.70;;;7.45;;
15996;SDS011;8103;51.340;12.326;2023-07-22T06:27:48;11.93;;;6.97;;
15996;SDS011;8103;51.340;12.326;2023-07-22T06:30:14;7.90;;;6.35;;
15996;SDS011;8103;51.340;12.326;2023-07-22T06:32:41;7.88;;;6.35;;
15996;SDS011;8103;51.340;12.326;2023-07-22T06:35:08;8.77;;;6.60;;
15996;SDS011;8103;51.340;12.326;2023-07-22T06:37:35;7.82;;;6.50;;
15996;SDS011;8103;51.340;12.326;2023-07-22T06:40:02;8.25;;;6.22;;
15996;SDS011;8103;51.340;12.326;2023-07-22T06:42:30;12.63;;;7.22;;
15996;SDS011;8103;51.340;12.326;2023-07-22T06:44:56;10.30;;;6.72;;
15996;SDS011;8103;51.340;12.326;2023-07-22T06:47:23;8.93;;;6.18;;
15996;SDS011;8103;51.340;12.326;2023-07-22T06:49:51;7.57;;;4.72;;
15996;SDS011;8103;51.340;12.326;2023-07-22T06:52:18;6.47;;;5.38;;
15996;SDS011;8103;51.340;12.326;2023-07-22T06:54:44;12.05;;;6.03;;
15996;SDS011;8103;51.340;12.326;2023-07-22T06:57:11;8.65;;;5.93;;
15996;SDS011;8103;51.340;12.326;2023-07-22T06:59:38;5.63;;;5.05;;
15996;SDS011;8103;51.340;12.326;2023-07-22T07:02:05;6.82;;;4.78;;
15996;SDS011;8103;51.340;12.326;2023-07-22T07:04:32;5.45;;;4.68;;
15996;SDS011;8103;51.340;12.326;2023-07-22T07:06:59;5.75;;;4.05;;
15996;SDS011;8103;51.340;12.326;2023-07-22T07:09:26;9.35;;;5.47;;
15996;SDS011;8103;51.340;12.326;2023-07-22T07:11:52;6.43;;;4.93;;
15996;SDS011;8103;51.340;12.326;2023-07-22T07:14:23;8.13;;;4.78;;
15996;SDS011;8103;51.340;12.326;2023-07-22T07:16:50;6.20;;;4.80;;
15996;SDS011;8103;51.340;12.326;2023-07-22T07:19:17;7.13;;;4.75;;
15996;SDS011;8103;51.340;12.326;2023-07-22T07:21:44;4.53;;;3.75;;
15996;SDS011;8103;51.340;12.326;2023-07-22T07:24:10;6.20;;;5.03;;
15996;SDS011;8103;51.340;12.326;2023-07-22T07:26:37;5.82;;;3.97;;
15996;SDS011;8103;51.340;12.326;2023-07-22T07:29:04;6.10;;;3.67;;
15996;SDS011;8103;51.340;12.326;2023-07-22T07:31:31;7.60;;;4.40;;
15996;SDS011;8103;51.340;12.326;2023-07-22T07:33:58;4.05;;;3.67;;
15996;SDS011;8103;51.340;12.326;2023-07-22T07:36:25;5.47;;;3.83;;
15996;SDS011;8103;51.340;12.326;2023-07-22T07:38:52;4.28;;;3.85;;
15996;SDS011;8103;51.340;12.326;2023-07-22T07:41:19;7.43;;;4.93;;
15996;SDS011;8103;51.340;12.326;2023-07-22T07:43:47;5.95;;;4.03;;
15996;SDS011;8103;51.340;12.326;2023-07-22T07:48:47;6.35;;;3.97;;
15996;SDS011;8103;51.340;12.326;2023-07-22T07:51:16;7.85;;;4.53;;
15996;SDS011;8103;51.340;12.326;2023-07-22T07:53:44;4.80;;;3.65;;
15996;SDS011;8103;51.340;12.326;2023-07-22T07:56:13;3.75;;;3.35;;
15996;SDS011;8103;51.340;12.326;2023-07-22T07:58:41;6.43;;;3.95;;
15996;SDS011;8103;51.340;12.326;2023-07-22T08:01:08;5.00;;;3.58;;
15996;SDS011;8103;51.340;12.326;2023-07-22T08:03:36;4.90;;;2.97;;
15996;SDS011;8103;51.340;12.326;2023-07-22T08:06:04;6.20;;;3.80;;
15996;SDS011;8103;51.340;12.326;2023-07-22T08:08:32;4.57;;;3.38;;
15996;SDS011;8103;51.340;12.326;2023-07-22T08:13:36;5.68;;;3.55;;
15996;SDS011;8103;51.340;12.326;2023-07-22T08:16:04;5.82;;;4.22;;
15996;SDS011;8103;51.340;12.326;2023-07-22T08:18:32;5.50;;;3.60;;
15996;SDS011;8103;51.340;12.326;2023-07-22T08:21:01;5.20;;;3.53;;
15996;SDS011;8103;51.340;12.326;2023-07-22T08:23:33;3.90;;;3.08;;
15996;SDS011;8103;51.340;12.326;2023-07-22T08:26:00;6.30;;;4.10;;
15996;SDS011;8103;51.340;12.326;2023-07-22T08:28:27;4.25;;;3.65;;
15996;SDS011;8103;51.340;12.326;2023-07-22T08:30:54;4.35;;;3.95;;
15996;SDS011;8103;51.340;12.326;2023-07-22T08:33:22;9.60;;;4.60;;
15996;SDS011;8103;51.340;12.326;2023-07-22T08:36:04;5.28;;;3.92;;
15996;SDS011;8103;51.340;12.326;2023-07-22T08:38:31;5.75;;;3.80;;
15996;SDS011;8103;51.340;12.326;2023-07-22T08:40:58;6.07;;;4.03;;
15996;SDS011;8103;51.340;12.326;2023-07-22T08:43:25;7.72;;;3.92;;
15996;SDS011;8103;51.340;12.326;2023-07-22T08:45:54;4.15;;;3.50;;
15996;SDS011;8103;51.340;12.326;2023-07-22T08:48:29;5.70;;;3.63;;
15996;SDS011;8103;51.340;12.326;2023-07-22T08:50:59;4.18;;;3.60;;
15996;SDS011;8103;51.340;12.326;2023-07-22T08:53:34;3.55;;;2.90;;
15996;SDS011;8103;51.340;12.326;2023-07-22T08:56:01;4.35;;;3.50;;
15996;SDS011;8103;51.340;12.326;2023-07-22T08:58:29;3.40;;;2.78;;
15996;SDS011;8103;51.340;12.326;2023-07-22T09:00:56;5.20;;;3.83;;
15996;SDS011;8103;51.340;12.326;2023-07-22T09:03:24;5.20;;;3.28;;
15996;SDS011;8103;51.340;12.326;2023-07-22T09:05:51;3.50;;;2.80;;
15996;SDS011;8103;51.340;12.326;2023-07-22T09:08:19;4.20;;;3.13;;
15996;SDS011;8103;51.340;12.326;2023-07-22T09:10:47;3.90;;;3.13;;
15996;SDS011;8103;51.340;12.326;2023-07-22T09:13:14;7.22;;;3.88;;
15996;SDS011;8103;51.340;12.326;2023-07-22T09:15:41;8.00;;;3.45;;
15996;SDS011;8103;51.340;12.326;2023-07-22T09:18:09;3.13;;;2.88;;
15996;SDS011;8103;51.340;12.326;2023-07-22T09:20:35;3.13;;;2.85;;
15996;SDS011;8103;51.340;12.326;2023-07-22T09:23:02;5.00;;;2.97;;
15996;SDS011;8103;51.340;12.326;2023-07-22T09:25:39;3.47;;;3.17;;
15996;SDS011;8103;51.340;12.326;2023-07-22T09:28:06;4.03;;;3.60;;
15996;SDS011;8103;51.340;12.326;2023-07-22T09:30:34;3.22;;;2.95;;
15996;SDS011;8103;51.340;12.326;2023-07-22T09:33:02;3.78;;;2.58;;
15996;SDS011;8103;51.340;12.326;2023-07-22T09:35:31;4.28;;;3.38;;
15996;SDS011;8103;51.340;12.326;2023-07-22T09:38:10;5.25;;;3.20;;
15996;SDS011;8103;51.340;12.326;2023-07-22T09:40:39;3.03;;;2.53;;
15996;SDS011;8103;51.340;12.326;2023-07-22T09:43:09;5.93;;;2.65;;
15996;SDS011;8103;51.340;12.326;2023-07-22T09:45:37;3.22;;;2.92;;
15996;SDS011;8103;51.340;12.326;2023-07-22T09:48:04;4.35;;;2.80;;
15996;SDS011;8103;51.340;12.326;2023-07-22T09:50:32;3.67;;;2.40;;
15996;SDS011;8103;51.340;12.326;2023-07-22T09:52:59;3.60;;;2.63;;
15996;SDS011;8103;51.340;12.326;2023-07-22T09:55:28;2.88;;;2.60;;
15996;SDS011;8103;51.340;12.326;2023-07-22T09:58:00;2.90;;;2.63;;
15996;SDS011;8103;51.340;12.326;2023-07-22T10:00:28;3.20;;;2.85;;
15996;SDS011;8103;51.340;12.326;2023-07-22T10:02:57;8.00;;;3.47;;
15996;SDS011;8103;51.340;12.326;2023-07-22T10:05:25;4.00;;;3.17;;
15996;SDS011;8103;51.340;12.326;2023-07-22T10:07:54;3.53;;;2.97;;
15996;SDS011;8103;51.340;12.326;2023-07-22T10:10:31;2.60;;;2.40;;
15996;SDS011;8103;51.340;12.326;2023-07-22T10:13:00;2.90;;;2.53;;
15996;SDS011;8103;51.340;12.326;2023-07-22T10:15:29;3.28;;;2.97;;
15996;SDS011;8103;51.340;12.326;2023-07-22T10:17:57;3.70;;;3.13;;
15996;SDS011;8103;51.340;12.326;2023-07-22T10:20:24;3.05;;;2.65;;
15996;SDS011;8103;51.340;12.326;2023-07-22T10:22:51;4.72;;;2.58;;
15996;SDS011;8103;51.340;12.326;2023-07-22T10:25:18;2.95;;;2.60;;
15996;SDS011;8103;51.340;12.326;2023-07-22T10:27:47;2.90;;;2.58;;
15996;SDS011;8103;51.340;12.326;2023-07-22T10:30:16;3.38;;;2.63;;
15996;SDS011;8103;51.340;12.326;2023-07-22T10:32:45;7.80;;;4.00;;
15996;SDS011;8103;51.340;12.326;2023-07-22T10:35:17;5.85;;;3.17;;
15996;SDS011;8103;51.340;12.326;2023-07-22T10:38:15;2.50;;;2.30;;
15996;SDS011;8103;51.340;12.326;2023-07-22T10:40:46;3.00;;;2.67;;
15996;SDS011;8103;51.340;12.326;2023-07-22T10:43:15;2.85;;;2.58;;
15996;SDS011;8103;51.340;12.326;2023-07-22T10:45:49;4.05;;;2.60;;
15996;SDS011;8103;51.340;12.326;2023-07-22T10:48:17;2.63;;;2.42;;
15996;SDS011;8103;51.340;12.326;2023-07-22T10:50:52;4.50;;;2.72;;
15996;SDS011;8103;51.340;12.326;2023-07-22T11:01:23;6.70;;;3.25;;
15996;SDS011;8103;51.340;12.326;2023-07-22T11:07:05;2.50;;;2.30;;
15996;SDS011;8103;51.340;12.326;2023-07-22T11:09:35;2.42;;;2.05;;
15996;SDS011;8103;51.340;12.326;2023-07-22T11:14:47;3.03;;;2.58;;
15996;SDS011;8103;51.340;12.326;2023-07-22T11:17:16;7.20;;;3.17;;
15996;SDS011;8103;51.340;12.326;2023-07-22T11:19:45;2.97;;;2.72;;
15996;SDS011;8103;51.340;12.326;2023-07-22T11:22:11;6.97;;;3.50;;
15996;SDS011;8103;51.340;12.326;2023-07-22T11:24:40;3.70;;;3.40;;
15996;SDS011;8103;51.340;12.326;2023-07-22T11:27:07;2.67;;;2.47;;
15996;SDS011;8103;51.340;12.326;2023-07-22T11:29:35;3.83;;;2.30;;
15996;SDS011;8103;51.340;12.326;2023-07-22T11:32:02;2.35;;;2.15;;
15996;SDS011;8103;51.340;12.326;2023-07-22T11:34:31;3.20;;;2.90;;
15996;SDS011;8103;51.340;12.326;2023-07-22T11:37:00;2.88;;;2.67;;
15996;SDS011;8103;51.340;12.326;2023-07-22T11:39:27;2.92;;;2.60;;
15996;SDS011;8103;51.340;12.326;2023-07-22T11:41:58;4.97;;;3.20;;
15996;SDS011;8103;51.340;12.326;2023-07-22T11:44:27;4.38;;;3.17;;
15996;SDS011;8103;51.340;12.326;2023-07-22T11:46:56;4.15;;;3.70;;
15996;SDS011;8103;51.340;12.326;2023-07-22T11:49:25;7.15;;;5.47;;
15996;SDS011;8103;51.340;12.326;2023-07-22T11:52:00;7.70;;;5.47;;
15996;SDS011;8103;51.340;12.326;2023-07-22T11:54:31;5.63;;;4.05;;
15996;SDS011;8103;51.340;12.326;2023-07-22T11:59:38;4.57;;;4.00;;
15996;SDS011;8103;51.340;12.326;2023-07-22T12:02:12;4.72;;;2.97;;
15996;SDS011;8103;51.340;12.326;2023-07-22T12:04:40;3.88;;;2.85;;
15996;SDS011;8103;51.340;12.326;2023-07-22T12:07:07;8.45;;;6.93;;
15996;SDS011;8103;51.340;12.326;2023-07-22T12:09:51;5.85;;;3.30;;
15996;SDS011;8103;51.340;12.326;2023-07-22T12:12:21;4.07;;;2.78;;
15996;SDS011;8103;51.340;12.326;2023-07-22T12:15:18;4.32;;;3.47;;
15996;SDS011;8103;51.340;12.326;2023-07-22T12:17:53;3.65;;;3.15;;
15996;SDS011;8103;51.340;12.326;2023-07-22T12:20:25;4.35;;;3.47;;
15996;SDS011;8103;51.340;12.326;2023-07-22T12:22:53;3.22;;;2.47;;
15996;SDS011;8103;51.340;12.326;2023-07-22T12:25:21;4.20;;;3.05;;
15996;SDS011;8103;51.340;12.326;2023-07-22T12:27:50;4.85;;;2.65;;
15996;SDS011;8103;51.340;12.326;2023-07-22T12:30:17;8.18;;;7.20;;
15996;SDS011;8103;51.340;12.326;2023-07-22T12:32:45;3.67;;;2.88;;
15996;SDS011;8103;51.340;12.326;2023-07-22T12:35:12;3.55;;;2.70;;
15996;SDS011;8103;51.340;12.326;2023-07-22T12:37:40;3.55;;;3.25;;
15996;SDS011;8103;51.340;12.326;2023-07-22T12:40:07;4.63;;;3.20;;
15996;SDS011;8103;51.340;12.326;2023-07-22T12:42:35;9.48;;;3.75;;
15996;SDS011;8103;51.340;12.326;2023-07-22T12:45:03;3.40;;;2.60;;
15996;SDS011;8103;51.340;12.326;2023-07-22T12:47:31;4.40;;;3.45;;
15996;SDS011;8103;51.340;12.326;2023-07-22T12:49:58;4.05;;;2.90;;
15996;SDS011;8103;51.340;12.326;2023-07-22T12:52:25;16.05;;;5.95;;
15996;SDS011;8103;51.340;12.326;2023-07-22T12:54:52;4.65;;;4.25;;
15996;SDS011;8103;51.340;12.326;2023-07-22T12:57:18;3.65;;;3.05;;
15996;SDS011;8103;51.340;12.326;2023-07-22T12:59:45;3.22;;;2.95;;
15996;SDS011;8103;51.340;12.326;2023-07-22T13:02:13;7.10;;;3.10;;
15996;SDS011;8103;51.340;12.326;2023-07-22T13:04:40;3.75;;;3.15;;
15996;SDS011;8103;51.340;12.326;2023-07-22T13:07:07;5.05;;;3.40;;
15996;SDS011;8103;51.340;12.326;2023-07-22T13:09:34;3.15;;;2.80;;
15996;SDS011;8103;51.340;12.326;2023-07-22T13:12:00;5.00;;;2.78;;
15996;SDS011;8103;51.340;12.326;2023-07-22T13:14:27;4.53;;;3.67;;
15996;SDS011;8103;51.340;12.326;2023-07-22T13:16:55;4.70;;;3.45;;
15996;SDS011;8103;51.340;12.326;2023-07-22T13:19:21;4.03;;;3.60;;
15996;SDS011;8103;51.340;12.326;2023-07-22T13:21:48;5.88;;;3.20;;
15996;SDS011;8103;51.340;12.326;2023-07-22T13:24:15;3.47;;;3.17;;
15996;SDS011;8103;51.340;12.326;2023-07-22T13:26:42;4.68;;;3.33;;
15996;SDS011;8103;51.340;12.326;2023-07-22T13:29:08;4.97;;;3.10;;
15996;SDS011;8103;51.340;12.326;2023-07-22T13:31:35;4.15;;;3.58;;
15996;SDS011;8103;51.340;12.326;2023-07-22T13:34:02;3.95;;;3.50;;
15996;SDS011;8103;51.340;12.326;2023-07-22T13:36:29;4.15;;;3.83;;
15996;SDS011;8103;51.340;12.326;2023-07-22T13:38:56;4.43;;;3.63;;
15996;SDS011;8103;51.340;12.326;2023-07-22T13:41:23;3.28;;;3.08;;
15996;SDS011;8103;51.340;12.326;2023-07-22T13:43:50;4.45;;;2.90;;
15996;SDS011;8103;51.340;12.326;2023-07-22T13:46:17;6.85;;;3.55;;
15996;SDS011;8103;51.340;12.326;2023-07-22T13:48:44;4.00;;;3.10;;
15996;SDS011;8103;51.340;12.326;2023-07-22T13:51:10;3.75;;;3.45;;
15996;SDS011;8103;51.340;12.326;2023-07-22T13:53:37;4.25;;;2.85;;
15996;SDS011;8103;51.340;12.326;2023-07-22T13:56:04;5.35;;;3.28;;
15996;SDS011;8103;51.340;12.326;2023-07-22T13:58:31;4.68;;;3.38;;
15996;SDS011;8103;51.340;12.326;2023-07-22T14:04:45;3.72;;;3.28;;
15996;SDS011;8103;51.340;12.326;2023-07-22T14:07:12;3.45;;;3.15;;
15996;SDS011;8103;51.340;12.326;2023-07-22T14:09:38;3.70;;;2.90;;
15996;SDS011;8103;51.340;12.326;2023-07-22T14:12:05;3.53;;;3.22;;
15996;SDS011;8103;51.340;12.326;2023-07-22T14:14:32;4.00;;;3.17;;
15996;SDS011;8103;51.340;12.326;2023-07-22T14:16:59;3.45;;;3.13;;
15996;SDS011;8103;51.340;12.326;2023-07-22T14:19:26;3.38;;;2.92;;
15996;SDS011;8103;51.340;12.326;2023-07-22T14:21:54;3.78;;;3.20;;
15996;SDS011;8103;51.340;12.326;2023-07-22T14:24:21;4.82;;;2.97;;
15996;SDS011;8103;51.340;12.326;2023-07-22T14:26:47;5.03;;;3.45;;
15996;SDS011;8103;51.340;12.326;2023-07-22T14:29:14;4.78;;;3.42;;
15996;SDS011;8103;51.340;12.326;2023-07-22T14:31:42;4.15;;;3.75;;
15996;SDS011;8103;51.340;12.326;2023-07-22T14:34:10;4.10;;;3.30;;
15996;SDS011;8103;51.340;12.326;2023-07-22T14:36:37;3.38;;;3.08;;
15996;SDS011;8103;51.340;12.326;2023-07-22T14:39:03;4.32;;;3.15;;
15996;SDS011;8103;51.340;12.326;2023-07-22T14:41:30;5.07;;;3.33;;
15996;SDS011;8103;51.340;12.326;2023-07-22T14:43:57;3.65;;;3.33;;
15996;SDS011;8103;51.340;12.326;2023-07-22T14:46:24;5.45;;;3.10;;
15996;SDS011;8103;51.340;12.326;2023-07-22T14:48:51;3.72;;;3.42;;
15996;SDS011;8103;51.340;12.326;2023-07-22T14:51:17;6.53;;;3.15;;
15996;SDS011;8103;51.340;12.326;2023-07-22T14:53:44;3.63;;;3.17;;
15996;SDS011;8103;51.340;12.326;2023-07-22T14:56:13;3.33;;;3.03;;
15996;SDS011;8103;51.340;12.326;2023-07-22T14:58:40;3.00;;;2.80;;
15996;SDS011;8103;51.340;12.326;2023-07-22T15:01:08;3.33;;;2.78;;
15996;SDS011;8103;51.340;12.326;2023-07-22T15:03:36;4.50;;;3.25;;
15996;SDS011;8103;51.340;12.326;2023-07-22T15:06:04;4.60;;;3.35;;
15996;SDS011;8103;51.340;12.326;2023-07-22T15:08:31;6.78;;;3.25;;
15996;SDS011;8103;51.340;12.326;2023-07-22T15:10:58;3.47;;;3.17;;
15996;SDS011;8103;51.340;12.326;2023-07-22T15:13:25;4.15;;;3.10;;
15996;SDS011;8103;51.340;12.326;2023-07-22T15:15:53;6.20;;;3.67;;
15996;SDS011;8103;51.340;12.326;2023-07-22T15:18:21;4.18;;;3.15;;
15996;SDS011;8103;51.340;12.326;2023-07-22T15:20:51;2.85;;;2.65;;
15996;SDS011;8103;51.340;12.326;2023-07-22T15:23:19;2.83;;;2.63;;
15996;SDS011;8103;51.340;12.326;2023-07-22T15:25:48;4.30;;;3.42;;
15996;SDS011;8103;51.340;12.326;2023-07-22T15:28:16;6.63;;;3.72;;